Time;durP1;ratioP1;P1;durP2;ratioP2;P2;SDS_P1;SDS_P2;PMS_P1;PMS_P2;Temp;Humidity;BMP_temperature;BMP_pressure;BME280_temperature;BME280_humidity;BME280_pressure;Samples;Min_cycle;Max_cycle;Signal;HPM_P1;HPM_P2
2021/03/03 00:02:14;;;;;;;11.12;4.47;;;7.80;46.40;;;;;;2556136;53;21952;-68
2021/03/03 00:04:40;;;;;;;7.62;4.22;;;7.70;46.30;;;;;;2558119;53;20911;-67
2021/03/03 00:07:07;;;;;;;10.23;4.40;;;7.70;46.40;;;;;;2555553;53;21002;-68
2021/03/03 00:09:33;;;;;;;8.32;4.30;;;7.70;46.50;;;;;;2555321;53;20958;-70
2021/03/03 00:12:00;;;;;;;7.65;3.87;;;7.70;46.50;;;;;;2321798;53;20998;-69
2021/03/03 00:14:26;;;;;;;8.48;4.50;;;7.70;46.50;;;;;;2337083;54;20950;-71
2021/03/03 00:16:53;;;;;;;10.05;4.60;;;7.80;46.70;;;;;;2327350;54;20987;-68
2021/03/03 00:19:20;;;;;;;7.82;4.03;;;7.70;46.70;;;;;;2327173;54;20954;-68
2021/03/03 00:21:47;;;;;;;7.00;3.33;;;7.70;46.70;;;;;;2569679;53;20944;-70
2021/03/03 00:24:13;;;;;;;9.70;4.32;;;7.70;46.70;;;;;;2557637;53;20990;-68
2021/03/03 00:26:39;;;;;;;9.23;4.30;;;7.70;46.70;;;;;;2332940;53;21017;-67
2021/03/03 00:29:06;;;;;;;8.55;4.22;;;7.70;46.80;;;;;;2333935;54;20966;-71
2021/03/03 00:31:32;;;;;;;9.07;4.07;;;7.70;46.80;;;;;;2555239;53;21077;-69
2021/03/03 00:33:59;;;;;;;8.57;4.18;;;7.70;46.80;;;;;;2321957;54;20966;-67
2021/03/03 00:36:25;;;;;;;7.90;3.62;;;7.70;46.80;;;;;;2322302;53;21005;-69
2021/03/03 00:38:53;;;;;;;7.95;3.95;;;7.70;46.90;;;;;;2321578;54;21806;-68
2021/03/03 00:41:19;;;;;;;8.52;3.87;;;7.70;46.90;;;;;;2321538;54;21018;-70
2021/03/03 00:43:46;;;;;;;8.88;4.30;;;7.70;47.00;;;;;;2569000;53;21922;-69
2021/03/03 00:46:12;;;;;;;7.95;3.45;;;7.70;47.00;;;;;;2560456;53;20991;-70
2021/03/03 00:48:38;;;;;;;9.32;3.95;;;7.70;47.00;;;;;;2341994;54;21006;-69
2021/03/03 00:51:05;;;;;;;10.85;4.28;;;7.70;47.00;;;;;;2560989;53;20930;-69
2021/03/03 00:53:31;;;;;;;8.40;3.80;;;7.70;47.10;;;;;;2329591;54;21002;-67
2021/03/03 00:55:58;;;;;;;7.45;3.60;;;7.70;47.00;;;;;;2570659;53;20954;-70
2021/03/03 00:58:26;;;;;;;7.80;3.55;;;7.70;47.00;;;;;;2321122;54;21001;-67
2021/03/03 01:00:53;;;;;;;9.70;4.50;;;7.60;47.00;;;;;;2326469;53;20931;-69
2021/03/03 01:03:22;;;;;;;9.95;4.30;;;7.60;47.00;;;;;;2565050;53;21006;-66
2021/03/03 01:05:48;;;;;;;8.40;3.83;;;7.60;47.10;;;;;;2556239;53;20982;-70
2021/03/03 01:08:15;;;;;;;9.30;3.90;;;7.60;47.10;;;;;;2540431;53;21002;-69
2021/03/03 01:10:41;;;;;;;8.32;4.18;;;7.60;47.20;;;;;;2325808;54;20982;-70
2021/03/03 01:13:08;;;;;;;8.40;4.18;;;7.60;47.20;;;;;;2323209;54;20972;-69
2021/03/03 01:15:35;;;;;;;8.43;4.03;;;7.60;47.30;;;;;;2573260;52;20946;-70
2021/03/03 01:18:01;;;;;;;7.25;3.87;;;7.60;47.40;;;;;;2562717;53;21360;-70
2021/03/03 01:20:31;;;;;;;7.12;3.85;;;7.60;47.30;;;;;;2322353;54;21807;-70
2021/03/03 01:23:13;;;;;;;8.88;4.18;;;7.50;47.30;;;;;;2333489;54;20998;-70
2021/03/03 01:25:39;;;;;;;9.32;3.90;;;7.50;47.40;;;;;;2553878;53;20961;-70
2021/03/03 01:28:06;;;;;;;7.60;4.20;;;7.50;47.10;;;;;;2559642;53;21007;-70
2021/03/03 01:30:43;;;;;;;5.50;2.97;;;7.50;47.20;;;;;;2555981;53;21755;-69
2021/03/03 01:33:10;;;;;;;9.55;3.33;;;7.50;47.20;;;;;;2569831;53;20975;-69
2021/03/03 01:35:38;;;;;;;8.52;3.37;;;7.40;47.10;;;;;;2321792;54;21026;-69
2021/03/03 01:38:07;;;;;;;7.32;3.40;;;7.50;47.20;;;;;;2556718;53;22358;-70
2021/03/03 01:40:33;;;;;;;7.93;2.95;;;7.40;47.20;;;;;;2331500;54;20967;-69
2021/03/03 01:43:02;;;;;;;6.75;3.25;;;7.40;47.20;;;;;;2329857;54;20946;-68
2021/03/03 01:45:30;;;;;;;8.00;3.72;;;7.40;47.20;;;;;;2323171;54;20978;-68
2021/03/03 01:47:56;;;;;;;8.40;3.90;;;7.30;47.30;;;;;;2556300;53;21081;-68
2021/03/03 01:50:23;;;;;;;8.40;3.92;;;7.30;47.30;;;;;;2556560;53;21054;-68
2021/03/03 01:52:50;;;;;;;7.15;3.30;;;7.30;47.30;;;;;;2548999;53;20955;-69
2021/03/03 01:55:16;;;;;;;7.40;3.50;;;7.30;47.40;;;;;;2334446;54;20969;-70
2021/03/03 01:57:42;;;;;;;6.50;3.05;;;7.30;47.50;;;;;;2556195;53;20938;-69
2021/03/03 02:00:11;;;;;;;6.95;3.42;;;7.30;47.50;;;;;;2556354;53;21934;-67
2021/03/03 02:02:37;;;;;;;8.57;3.50;;;7.30;47.60;;;;;;2558902;53;21000;-67
2021/03/03 02:05:04;;;;;;;7.43;3.25;;;7.30;47.70;;;;;;2331108;54;21490;-69
2021/03/03 02:07:42;;;;;;;5.87;2.90;;;7.20;47.70;;;;;;2323928;54;20973;-69
2021/03/03 02:10:15;;;;;;;6.37;3.00;;;7.20;47.80;;;;;;2529863;53;21061;-70
2021/03/03 02:12:45;;;;;;;9.30;3.80;;;7.20;47.70;;;;;;2530915;53;20924;-69
2021/03/03 02:15:12;;;;;;;7.32;3.20;;;7.20;47.80;;;;;;2326446;54;20965;-69
2021/03/03 02:17:40;;;;;;;5.78;2.60;;;7.20;47.70;;;;;;2570691;53;20945;-66
2021/03/03 02:20:11;;;;;;;7.30;3.25;;;7.20;47.70;;;;;;2556288;53;20918;-67
2021/03/03 02:24:17;;;;;;;5.68;2.90;;;7.20;47.70;;;;;;2555836;53;21006;-68
2021/03/03 02:26:43;;;;;;;6.72;2.62;;;7.20;47.80;;;;;;2325200;54;20930;-70
2021/03/03 02:29:10;;;;;;;5.82;2.90;;;7.10;47.50;;;;;;2555803;53;21034;-68
2021/03/03 02:31:42;;;;;;;6.12;2.83;;;7.10;47.70;;;;;;2322007;54;20958;-67
2021/03/03 02:34:09;;;;;;;6.70;2.87;;;7.10;47.80;;;;;;2555987;53;21581;-70
2021/03/03 02:36:37;;;;;;;5.55;2.80;;;7.10;47.70;;;;;;2569135;53;21411;-69
2021/03/03 02:39:03;;;;;;;6.53;2.70;;;7.10;47.80;;;;;;2322603;54;20986;-67
2021/03/03 02:41:30;;;;;;;5.00;2.33;;;7.10;47.80;;;;;;2326460;54;20938;-68
2021/03/03 02:43:57;;;;;;;5.57;2.80;;;7.10;47.90;;;;;;2329001;54;21057;-67
2021/03/03 02:46:23;;;;;;;6.97;2.40;;;7.10;47.90;;;;;;2326969;54;20963;-70
2021/03/03 02:48:49;;;;;;;4.87;2.37;;;7.10;47.90;;;;;;2556718;53;20930;-70
2021/03/03 02:51:16;;;;;;;7.50;3.53;;;7.10;48.00;;;;;;2321235;54;21109;-68
2021/03/03 02:53:43;;;;;;;5.87;2.80;;;7.10;48.00;;;;;;2318607;54;20907;-69
2021/03/03 02:56:09;;;;;;;6.40;2.87;;;7.10;48.10;;;;;;2556263;53;20930;-69
2021/03/03 02:58:36;;;;;;;6.35;3.00;;;7.00;48.00;;;;;;2562303;53;21369;-69
2021/03/03 03:01:03;;;;;;;6.22;3.08;;;7.00;48.00;;;;;;2327014;54;20938;-71
2021/03/03 03:03:50;;;;;;;5.72;2.92;;;7.00;48.10;;;;;;2555651;53;21073;-70
2021/03/03 03:06:24;;;;;;;4.62;2.20;;;7.00;48.30;;;;;;2305012;54;21053;-70
2021/03/03 03:08:57;;;;;;;7.72;3.15;;;7.00;48.30;;;;;;2328283;54;20963;-69
2021/03/03 03:11:24;;;;;;;;;;;7.00;48.40;;;;;;2336497;54;21526;-67
2021/03/03 03:13:51;;;;;;;6.28;2.03;;;7.00;48.90;;;;;;2323703;54;20075;-68
2021/03/03 03:16:17;;;;;;;6.37;3.05;;;7.00;48.10;;;;;;2304828;54;20914;-69
2021/03/03 03:18:46;;;;;;;6.18;2.70;;;7.00;48.20;;;;;;2319824;54;21021;-69
2021/03/03 03:21:13;;;;;;;8.20;3.33;;;7.10;48.50;;;;;;2323684;54;21002;-68
2021/03/03 03:23:39;;;;;;;7.30;3.65;;;7.00;48.70;;;;;;2570238;53;21824;-68
2021/03/03 03:26:06;;;;;;;7.37;3.72;;;7.00;48.60;;;;;;2556051;53;21791;-68
2021/03/03 03:28:36;;;;;;;6.53;3.35;;;7.10;48.80;;;;;;2322907;54;20954;-68
2021/03/03 03:31:02;;;;;;;6.22;2.78;;;7.10;49.00;;;;;;2315298;54;21250;-70
2021/03/03 03:33:30;;;;;;;6.90;2.90;;;7.10;48.90;;;;;;2321357;54;20954;-68
2021/03/03 03:35:57;;;;;;;5.95;2.95;;;7.10;48.90;;;;;;2325330;54;20990;-70
2021/03/03 03:38:28;;;;;;;6.20;3.10;;;7.10;49.00;;;;;;2330447;54;20933;-68
2021/03/03 03:40:54;;;;;;;6.87;3.37;;;7.20;49.20;;;;;;2323035;54;20958;-67
2021/03/03 03:43:21;;;;;;;6.70;3.20;;;7.20;49.10;;;;;;2334156;54;21704;-67
2021/03/03 03:45:48;;;;;;;6.28;2.60;;;7.20;49.20;;;;;;2555719;53;21096;-67
2021/03/03 03:48:16;;;;;;;7.65;2.70;;;7.20;49.10;;;;;;2334328;54;20966;-70
2021/03/03 03:50:42;;;;;;;4.97;2.85;;;7.20;49.00;;;;;;2323002;54;21017;-71
2021/03/03 03:53:08;;;;;;;5.18;2.80;;;7.20;49.00;;;;;;2323248;54;21624;-68
2021/03/03 03:55:35;;;;;;;7.72;3.30;;;7.30;49.00;;;;;;2327419;54;21041;-68
2021/03/03 03:58:04;;;;;;;5.10;2.72;;;7.30;49.00;;;;;;2570314;53;20948;-70
2021/03/03 04:00:30;;;;;;;6.20;3.30;;;7.30;49.00;;;;;;2555216;53;21720;-70
2021/03/03 04:02:57;;;;;;;6.45;3.40;;;7.30;49.00;;;;;;2556916;53;20978;-68
2021/03/03 04:05:23;;;;;;;8.18;2.70;;;7.30;49.00;;;;;;2334453;54;21493;-69
2021/03/03 04:07:50;;;;;;;5.15;2.65;;;7.30;49.00;;;;;;2555821;53;20921;-68
2021/03/03 04:10:26;;;;;;;5.70;3.10;;;7.30;48.90;;;;;;2564894;53;20920;-70
2021/03/03 04:12:53;;;;;;;6.28;2.55;;;7.30;49.00;;;;;;2557318;53;20945;-71
2021/03/03 04:15:20;;;;;;;6.22;2.60;;;7.30;48.90;;;;;;2323033;54;20970;-69
2021/03/03 04:17:46;;;;;;;6.07;2.78;;;7.20;48.80;;;;;;2321024;54;20997;-69
2021/03/03 04:20:14;;;;;;;5.07;2.50;;;7.20;48.70;;;;;;2324889;54;20954;-71
2021/03/03 04:22:43;;;;;;;7.65;2.70;;;7.20;48.70;;;;;;2567680;53;21830;-69
2021/03/03 04:25:11;;;;;;;6.70;2.60;;;7.20;48.80;;;;;;2337647;54;20942;-70
2021/03/03 04:27:37;;;;;;;6.07;2.65;;;7.20;48.80;;;;;;2557499;53;21021;-67
2021/03/03 04:30:11;;;;;;;5.45;2.78;;;7.20;48.80;;;;;;2556209;53;21025;-69
2021/03/03 04:32:37;;;;;;;5.10;2.80;;;7.20;48.90;;;;;;2569316;53;21457;-67
2021/03/03 04:35:05;;;;;;;5.97;2.70;;;7.20;48.80;;;;;;2324856;54;21055;-67
2021/03/03 04:37:31;;;;;;;6.20;3.00;;;7.20;48.80;;;;;;2331128;54;21019;-68
2021/03/03 04:39:57;;;;;;;7.60;3.40;;;7.20;48.80;;;;;;2325911;54;20966;-68
2021/03/03 04:42:24;;;;;;;6.45;2.67;;;7.20;48.90;;;;;;2555172;53;20942;-69
2021/03/03 04:44:50;;;;;;;6.65;2.90;;;7.20;48.80;;;;;;2569134;53;21010;-71
2021/03/03 04:47:16;;;;;;;6.53;3.08;;;7.20;48.90;;;;;;2326027;54;20970;-67
2021/03/03 04:49:46;;;;;;;6.37;2.72;;;7.10;48.90;;;;;;2569471;53;20982;-70
2021/03/03 04:52:13;;;;;;;5.15;2.65;;;7.10;48.90;;;;;;2555231;53;20962;-70
2021/03/03 04:54:41;;;;;;;5.90;2.65;;;7.10;48.90;;;;;;2556428;53;20962;-69
2021/03/03 04:57:08;;;;;;;7.03;3.20;;;7.10;49.00;;;;;;2529057;53;21814;-69
2021/03/03 04:59:35;;;;;;;6.28;3.17;;;7.10;49.00;;;;;;2322620;54;21022;-67
2021/03/03 05:02:02;;;;;;;8.60;3.10;;;7.10;49.00;;;;;;2330890;53;20952;-66
2021/03/03 05:04:28;;;;;;;6.95;3.47;;;7.10;49.10;;;;;;2326009;53;20987;-67
2021/03/03 05:06:55;;;;;;;6.12;3.20;;;7.00;49.00;;;;;;2564575;53;21002;-68
2021/03/03 05:09:22;;;;;;;7.28;2.75;;;7.00;49.10;;;;;;2322201;54;20997;-66
2021/03/03 05:11:48;;;;;;;4.90;2.65;;;7.00;49.30;;;;;;2325884;54;20990;-68
2021/03/03 05:14:15;;;;;;;12.55;3.67;;;7.00;49.20;;;;;;2321657;54;21395;-68
2021/03/03 05:16:41;;;;;;;6.45;3.62;;;7.00;49.30;;;;;;2556491;53;21057;-68
2021/03/03 05:19:08;;;;;;;6.68;3.20;;;7.00;49.50;;;;;;2327979;54;20994;-68
2021/03/03 05:21:35;;;;;;;6.97;3.50;;;7.00;49.60;;;;;;2564482;53;20926;-67
2021/03/03 05:24:03;;;;;;;6.70;3.37;;;7.00;49.60;;;;;;2322918;54;20978;-68
2021/03/03 05:26:29;;;;;;;7.43;3.33;;;7.00;49.60;;;;;;2557454;53;21017;-70
2021/03/03 05:28:56;;;;;;;8.10;3.40;;;7.00;49.60;;;;;;2329599;54;21022;-71
2021/03/03 05:31:24;;;;;;;7.43;3.80;;;7.00;49.60;;;;;;2326083;54;20994;-67
2021/03/03 05:33:59;;;;;;;7.03;3.55;;;7.00;50.30;;;;;;2312660;54;21344;-71
2021/03/03 05:36:25;;;;;;;7.55;3.50;;;7.00;49.70;;;;;;2555910;53;20982;-68
2021/03/03 05:38:52;;;;;;;6.80;3.40;;;7.00;49.60;;;;;;2335207;53;20908;-69
2021/03/03 05:41:22;;;;;;;7.07;3.53;;;7.00;49.70;;;;;;2345143;54;20917;-70
2021/03/03 05:43:49;;;;;;;6.20;3.05;;;7.00;49.70;;;;;;2322143;54;20965;-68
2021/03/03 05:46:16;;;;;;;7.25;3.20;;;7.00;49.70;;;;;;2557448;53;21014;-70
2021/03/03 05:48:44;;;;;;;6.55;2.90;;;7.10;49.80;;;;;;2322883;54;21002;-70
2021/03/03 05:51:10;;;;;;;6.87;3.30;;;7.00;49.80;;;;;;2566979;53;21495;-68
2021/03/03 05:53:37;;;;;;;7.22;3.40;;;7.10;49.80;;;;;;2328460;54;21419;-70
2021/03/03 05:56:05;;;;;;;6.97;3.25;;;7.10;49.80;;;;;;2321337;54;21302;-66
2021/03/03 05:58:33;;;;;;;5.65;2.50;;;7.10;49.80;;;;;;2322595;54;21858;-68
2021/03/03 06:01:00;;;;;;;6.05;3.17;;;7.10;49.70;;;;;;2331360;54;21014;-68
2021/03/03 06:03:26;;;;;;;7.20;3.40;;;7.10;49.70;;;;;;2555967;53;21001;-69
2021/03/03 06:05:53;;;;;;;6.32;3.15;;;7.10;49.70;;;;;;2554415;53;20978;-71
2021/03/03 06:08:32;;;;;;;7.35;3.67;;;7.00;49.60;;;;;;2569404;53;20987;-68
2021/03/03 06:11:01;;;;;;;7.78;3.35;;;7.10;50.00;;;;;;2322958;54;20946;-69
2021/03/03 06:13:27;;;;;;;7.07;3.70;;;7.00;49.80;;;;;;2324797;54;21715;-70
2021/03/03 06:15:53;;;;;;;7.68;3.28;;;7.00;49.80;;;;;;2325864;53;21767;-68
2021/03/03 06:18:23;;;;;;;8.02;3.78;;;7.00;49.80;;;;;;2323816;54;21660;-69
2021/03/03 06:20:50;;;;;;;6.07;2.62;;;7.00;49.80;;;;;;2322702;54;20925;-69
2021/03/03 06:23:34;;;;;;;6.50;3.72;;;7.00;49.90;;;;;;2335171;53;21078;-68
2021/03/03 06:26:18;;;;;;;7.18;3.05;;;7.00;50.30;;;;;;2323674;54;20969;-70
2021/03/03 06:28:45;;;;;;;8.23;3.92;;;7.00;50.20;;;;;;2336029;54;21453;-68
2021/03/03 06:31:30;;;;;;;6.37;3.30;;;7.00;49.90;;;;;;2571732;53;21065;-69
2021/03/03 06:34:22;;;;;;;6.25;2.95;;;7.00;50.30;;;;;;2563583;53;21062;-70
2021/03/03 06:36:58;;;;;;;6.15;3.33;;;7.10;50.30;;;;;;2554574;53;21002;-69
2021/03/03 06:39:34;;;;;;;6.05;2.97;;;7.00;50.00;;;;;;2556626;53;21376;-70
2021/03/03 06:42:02;;;;;;;6.65;3.00;;;7.00;50.10;;;;;;2556016;52;20950;-68
2021/03/03 06:44:51;;;;;;;6.68;3.58;;;7.00;50.10;;;;;;2569458;53;21739;-69
2021/03/03 06:47:17;;;;;;;6.97;3.00;;;7.10;50.60;;;;;;2556472;53;21001;-70
2021/03/03 06:49:46;;;;;;;6.55;3.33;;;7.10;50.40;;;;;;2321768;54;21426;-68
2021/03/03 06:52:12;;;;;;;6.55;3.25;;;7.10;50.50;;;;;;2322123;54;20978;-68
2021/03/03 06:54:39;;;;;;;6.47;3.60;;;7.10;50.50;;;;;;2570803;53;21063;-70
2021/03/03 06:57:08;;;;;;;8.38;3.40;;;7.20;50.70;;;;;;2321627;54;21026;-68
2021/03/03 06:59:35;;;;;;;8.80;3.42;;;7.20;50.70;;;;;;2304440;54;21457;-69
2021/03/03 07:02:12;;;;;;;6.20;3.17;;;7.20;50.80;;;;;;2558976;53;21731;-69
2021/03/03 07:04:42;;;;;;;6.68;3.37;;;7.30;51.20;;;;;;2322759;53;20977;-70
2021/03/03 07:07:18;;;;;;;6.87;3.50;;;7.30;51.00;;;;;;2569012;53;20963;-70
2021/03/03 07:10:01;;;;;;;7.03;3.60;;;7.40;51.30;;;;;;2342814;54;21029;-69
2021/03/03 07:12:30;;;;;;;5.85;2.95;;;7.40;51.40;;;;;;2323713;54;21490;-67
2021/03/03 07:15:04;;;;;;;7.03;3.25;;;7.50;51.20;;;;;;2330264;54;20954;-69
2021/03/03 07:17:37;;;;;;;6.57;3.10;;;7.50;51.40;;;;;;2334152;54;20973;-71
2021/03/03 07:20:15;;;;;;;7.68;4.25;;;7.60;51.50;;;;;;2569638;53;21034;-70
2021/03/03 07:22:48;;;;;;;9.18;4.18;;;7.60;51.60;;;;;;2321063;54;20997;-70
2021/03/03 07:25:15;;;;;;;9.40;4.35;;;7.70;51.50;;;;;;2541951;53;20966;-68
2021/03/03 07:27:43;;;;;;;6.50;4.00;;;7.70;51.50;;;;;;2320951;54;20985;-69
2021/03/03 07:30:16;;;;;;;8.77;3.97;;;7.80;51.80;;;;;;2321081;54;20955;-71
2021/03/03 07:32:43;;;;;;;7.32;4.18;;;7.90;52.00;;;;;;2333951;54;20947;-69
2021/03/03 07:35:23;;;;;;;8.80;4.25;;;8.00;52.00;;;;;;2321409;54;21744;-72
2021/03/03 07:37:53;;;;;;;8.93;4.30;;;8.10;52.10;;;;;;2553198;53;21008;-69
2021/03/03 07:40:19;;;;;;;7.55;3.95;;;8.20;52.20;;;;;;2320535;54;21077;-71
2021/03/03 07:42:52;;;;;;;10.40;4.95;;;8.30;52.30;;;;;;2326109;54;21477;-69
2021/03/03 07:45:19;;;;;;;9.63;5.10;;;8.40;52.50;;;;;;2330949;54;21029;-70
2021/03/03 07:47:45;;;;;;;10.10;4.85;;;8.50;52.40;;;;;;2552732;53;20970;-70
2021/03/03 07:50:15;;;;;;;9.10;5.15;;;8.60;52.50;;;;;;2336065;54;20949;-71
2021/03/03 07:52:49;;;;;;;7.97;4.40;;;8.70;52.60;;;;;;2564451;53;20946;-68
2021/03/03 07:55:16;;;;;;;8.50;4.87;;;8.80;52.60;;;;;;2312819;55;20935;-69
2021/03/03 07:57:46;;;;;;;10.40;5.15;;;8.90;52.50;;;;;;2556393;53;20994;-71
2021/03/03 08:00:14;;;;;;;9.95;5.18;;;9.00;52.50;;;;;;2322549;54;21846;-70
2021/03/03 08:02:54;;;;;;;9.00;4.70;;;9.00;52.30;;;;;;2556795;53;21002;-70
2021/03/03 08:05:40;;;;;;;8.02;4.50;;;9.10;52.50;;;;;;2566538;53;20963;-67
2021/03/03 08:08:23;;;;;;;8.20;4.40;;;9.20;52.60;;;;;;2556450;53;20983;-66
2021/03/03 08:10:51;;;;;;;8.88;4.87;;;9.30;52.50;;;;;;2567110;53;21853;-69
2021/03/03 08:13:42;;;;;;;10.23;5.37;;;9.40;52.40;;;;;;2554249;53;21539;-71
2021/03/03 08:16:09;;;;;;;7.70;4.40;;;9.50;52.80;;;;;;2327327;54;20990;-70
2021/03/03 08:19:16;;;;;;;9.73;4.35;;;9.60;52.40;;;;;;2324642;54;20998;-70
2021/03/03 08:21:47;;;;;;;9.00;4.15;;;9.70;52.50;;;;;;2333288;54;20984;-70
2021/03/03 08:24:37;;;;;;;10.35;5.60;;;9.80;52.30;;;;;;2555908;53;20986;-68
2021/03/03 08:27:27;;;;;;;8.02;4.43;;;9.90;52.50;;;;;;2325795;54;20934;-71
2021/03/03 08:30:13;;;;;;;9.90;4.93;;;10.00;51.30;;;;;;2569766;53;21057;-72
2021/03/03 08:32:40;;;;;;;10.48;5.12;;;10.10;51.30;;;;;;2555048;53;20946;-70
2021/03/03 08:35:07;;;;;;;8.63;4.78;;;10.20;51.10;;;;;;2557490;53;21427;-70
2021/03/03 08:37:35;;;;;;;8.80;4.57;;;10.20;51.00;;;;;;2332481;54;20938;-70
2021/03/03 08:40:02;;;;;;;9.60;5.10;;;10.30;51.00;;;;;;2331174;54;21026;-72
2021/03/03 08:42:34;;;;;;;9.55;5.22;;;10.40;51.00;;;;;;2321268;54;20970;-69
2021/03/03 08:45:06;;;;;;;12.68;6.95;;;10.50;51.10;;;;;;2557436;53;20994;-68
2021/03/03 08:47:49;;;;;;;19.48;8.48;;;10.60;51.70;;;;;;2330673;54;21454;-71
2021/03/03 08:50:33;;;;;;;13.75;7.78;;;10.70;51.20;;;;;;2568812;53;22023;-70
2021/03/03 08:53:54;;;;;;;16.02;9.20;;;10.80;51.20;;;;;;2321653;54;21041;-67
2021/03/03 09:03:09;;;;;;;12.93;6.82;;;10.80;51.20;;;;;;2321346;54;20984;-68
2021/03/03 09:05:37;;;;;;;9.60;5.10;;;11.20;51.00;;;;;;2308469;54;20970;-72
2021/03/03 09:08:04;;;;;;;13.38;6.65;;;11.20;50.60;;;;;;2570100;53;21029;-69
2021/03/03 09:10:33;;;;;;;11.27;6.28;;;11.30;50.80;;;;;;2323981;54;20928;-72
2021/03/03 09:13:01;;;;;;;10.38;5.22;;;11.40;50.90;;;;;;2535010;53;20966;-70
2021/03/03 09:15:28;;;;;;;10.82;5.75;;;11.50;50.90;;;;;;2555212;53;20985;-68
2021/03/03 09:17:54;;;;;;;11.77;6.30;;;11.60;51.00;;;;;;2335149;54;20996;-68
2021/03/03 09:20:22;;;;;;;11.10;6.18;;;11.60;51.00;;;;;;2338969;54;21010;-69
2021/03/03 09:22:49;;;;;;;13.95;7.45;;;11.70;51.00;;;;;;2323172;54;20926;-69
2021/03/03 09:25:22;;;;;;;13.27;7.00;;;11.80;51.10;;;;;;2556898;53;21014;-71
2021/03/03 09:28:01;;;;;;;12.73;7.72;;;11.90;51.20;;;;;;2329994;54;20979;-70
2021/03/03 09:30:48;;;;;;;11.43;6.30;;;12.00;51.30;;;;;;2332656;54;21008;-71
2021/03/03 09:33:18;;;;;;;12.02;6.40;;;12.20;51.50;;;;;;2325774;54;20942;-70
2021/03/03 09:35:45;;;;;;;11.20;5.95;;;12.30;51.30;;;;;;2329000;54;21033;-72
2021/03/03 09:38:11;;;;;;;11.45;6.10;;;12.40;51.30;;;;;;2322222;54;21009;-71
2021/03/03 09:40:38;;;;;;;8.57;5.45;;;12.60;51.40;;;;;;2555685;53;20918;-71
2021/03/03 09:43:05;;;;;;;8.60;5.28;;;12.60;51.20;;;;;;2325244;54;21038;-69
2021/03/03 09:45:31;;;;;;;10.10;5.28;;;12.80;51.10;;;;;;2550985;53;21038;-70
2021/03/03 09:47:58;;;;;;;11.50;5.53;;;12.90;50.90;;;;;;2326419;54;21361;-70
2021/03/03 09:50:33;;;;;;;7.82;4.82;;;13.00;50.70;;;;;;2560572;53;21624;-69
2021/03/03 09:53:00;;;;;;;8.60;4.93;;;13.10;50.70;;;;;;2325383;54;20977;-69
2021/03/03 09:55:37;;;;;;;10.07;5.20;;;13.20;50.60;;;;;;2555413;53;20930;-70
2021/03/03 09:58:03;;;;;;;14.95;6.20;;;13.30;50.50;;;;;;2321124;54;20974;-70
2021/03/03 10:01:05;;;;;;;10.25;5.60;;;13.40;50.60;;;;;;2325817;53;20950;-73
2021/03/03 10:03:34;;;;;;;10.75;5.20;;;13.60;50.60;;;;;;2324774;54;20997;-70
2021/03/03 10:06:00;;;;;;;9.48;5.12;;;13.70;50.60;;;;;;2324761;54;21441;-68
2021/03/03 10:08:27;;;;;;;10.05;5.30;;;13.80;50.70;;;;;;2339714;54;21133;-70
2021/03/03 10:10:54;;;;;;;10.60;5.50;;;13.90;50.70;;;;;;2562199;53;20995;-69
2021/03/03 10:13:23;;;;;;;9.73;6.07;;;14.00;50.50;;;;;;2559400;53;20987;-70
2021/03/03 10:15:52;;;;;;;11.77;5.82;;;14.10;50.30;;;;;;2328805;54;22011;-68
2021/03/03 10:18:22;;;;;;;9.45;5.80;;;14.20;50.30;;;;;;2323116;54;20923;-67
2021/03/03 10:20:55;;;;;;;9.48;5.00;;;14.30;50.30;;;;;;2326072;54;21026;-70
2021/03/03 10:23:26;;;;;;;9.88;5.62;;;14.40;50.10;;;;;;2303619;54;20928;-69
2021/03/03 10:25:59;;;;;;;12.98;6.37;;;14.50;50.00;;;;;;2334565;54;20925;-69
2021/03/03 10:28:27;;;;;;;14.27;6.60;;;14.60;49.90;;;;;;2331969;54;20990;-69
2021/03/03 10:30:55;;;;;;;10.27;6.62;;;14.70;49.80;;;;;;2562955;53;20939;-72
2021/03/03 10:33:48;;;;;;;17.77;7.43;;;14.80;49.70;;;;;;2323623;54;21982;-68
2021/03/03 10:36:19;;;;;;;13.50;8.10;;;14.80;49.30;;;;;;2555689;53;20974;-71
2021/03/03 10:38:47;;;;;;;11.75;6.43;;;14.90;49.30;;;;;;2325750;54;21015;-72
2021/03/03 10:41:33;;;;;;;11.25;6.12;;;15.00;49.30;;;;;;2330678;54;20934;-71
2021/03/03 10:44:01;;;;;;;9.85;5.78;;;15.10;49.20;;;;;;2556575;53;21125;-70
2021/03/03 10:46:28;;;;;;;10.27;5.90;;;15.10;49.30;;;;;;2331906;54;20933;-69
2021/03/03 10:48:55;;;;;;;13.57;6.93;;;15.20;49.40;;;;;;2324051;54;21013;-69
2021/03/03 10:51:35;;;;;;;11.43;6.62;;;15.30;49.40;;;;;;2322319;54;21065;-72
2021/03/03 10:54:02;;;;;;;11.38;6.37;;;15.40;49.30;;;;;;2320881;54;20918;-73
2021/03/03 10:56:35;;;;;;;11.15;6.00;;;15.50;49.50;;;;;;2556488;53;21038;-73
2021/03/03 10:59:05;;;;;;;10.77;6.18;;;15.60;49.50;;;;;;2329414;54;21039;-69
2021/03/03 11:01:46;;;;;;;12.35;6.05;;;15.70;49.30;;;;;;2325662;54;20918;-71
2021/03/03 11:04:13;;;;;;;12.95;6.35;;;15.90;49.20;;;;;;2559529;53;21040;-68
2021/03/03 11:06:40;;;;;;;10.77;6.55;;;15.90;49.20;;;;;;2329673;54;20972;-71
2021/03/03 11:09:15;;;;;;;10.95;5.93;;;16.00;49.10;;;;;;2543492;53;20970;-70
2021/03/03 11:11:51;;;;;;;11.23;6.62;;;16.10;49.00;;;;;;2325528;54;21014;-72
2021/03/03 11:14:17;;;;;;;9.75;5.82;;;16.20;48.90;;;;;;2323847;53;21447;-71
2021/03/03 11:16:46;;;;;;;10.50;5.90;;;16.30;49.00;;;;;;2554615;53;20943;-69
2021/03/03 11:19:13;;;;;;;10.57;6.45;;;16.40;49.00;;;;;;2322420;54;20986;-72
2021/03/03 11:21:39;;;;;;;9.77;5.85;;;16.50;48.90;;;;;;2324710;53;21009;-68
2021/03/03 11:24:05;;;;;;;11.80;7.25;;;16.60;48.90;;;;;;2329944;54;21449;-71
2021/03/03 11:26:32;;;;;;;10.57;6.80;;;16.70;48.70;;;;;;2321668;54;21371;-69
2021/03/03 11:28:59;;;;;;;13.73;7.93;;;16.80;48.60;;;;;;2325787;54;20945;-71
2021/03/03 11:31:26;;;;;;;12.98;7.22;;;16.90;48.40;;;;;;2321792;54;20977;-70
2021/03/03 11:33:53;;;;;;;11.82;6.97;;;17.00;48.00;;;;;;2567218;53;21856;-71
2021/03/03 11:36:20;;;;;;;12.45;7.18;;;17.10;47.80;;;;;;2557126;53;21609;-71
2021/03/03 11:38:46;;;;;;;13.90;7.37;;;17.20;47.80;;;;;;2321179;54;20978;-74
2021/03/03 11:41:13;;;;;;;10.95;6.82;;;17.30;47.80;;;;;;2321698;54;20914;-69
2021/03/03 11:43:39;;;;;;;11.15;6.80;;;17.30;47.70;;;;;;2326588;54;20986;-69
2021/03/03 11:46:09;;;;;;;13.50;7.07;;;17.40;47.70;;;;;;2329843;54;21042;-71
2021/03/03 11:48:35;;;;;;;12.57;6.57;;;17.40;47.50;;;;;;2556267;53;21939;-71
2021/03/03 11:51:02;;;;;;;11.20;6.50;;;17.50;47.50;;;;;;2322489;54;20966;-70
2021/03/03 11:53:30;;;;;;;12.50;7.00;;;17.50;47.50;;;;;;2332242;54;20970;-69
2021/03/03 11:55:57;;;;;;;12.88;6.50;;;17.60;47.50;;;;;;2321524;54;20923;-73
2021/03/03 11:58:24;;;;;;;11.30;6.40;;;17.60;47.50;;;;;;2328003;54;20986;-72
2021/03/03 12:00:53;;;;;;;9.55;5.93;;;17.70;47.50;;;;;;2562271;53;21805;-71
2021/03/03 12:03:19;;;;;;;12.00;6.62;;;17.70;47.50;;;;;;2324708;54;21418;-69
2021/03/03 12:05:46;;;;;;;12.07;6.35;;;17.80;48.20;;;;;;2328893;54;21034;-69
2021/03/03 12:08:12;;;;;;;11.00;6.37;;;17.80;47.50;;;;;;2322167;54;21057;-70
2021/03/03 12:10:39;;;;;;;10.13;5.97;;;17.90;47.50;;;;;;2322898;54;20994;-70
2021/03/03 12:13:05;;;;;;;13.38;7.22;;;17.90;47.40;;;;;;2582957;53;20942;-68
2021/03/03 12:15:31;;;;;;;11.32;6.60;;;18.00;47.10;;;;;;2321986;54;20962;-70
2021/03/03 12:17:59;;;;;;;12.73;7.62;;;18.10;47.50;;;;;;2327179;54;21057;-69
2021/03/03 12:20:29;;;;;;;12.63;7.25;;;18.10;46.80;;;;;;2557398;53;21397;-72
2021/03/03 12:22:55;;;;;;;13.75;7.72;;;18.10;46.70;;;;;;2323038;54;20954;-69
2021/03/03 12:25:25;;;;;;;13.60;7.28;;;18.10;46.60;;;;;;2321781;54;21042;-71
2021/03/03 12:27:51;;;;;;;10.70;6.32;;;18.30;46.70;;;;;;2556297;53;20946;-69
2021/03/03 12:30:18;;;;;;;13.10;6.55;;;18.20;46.60;;;;;;2555149;53;20946;-68
2021/03/03 12:32:44;;;;;;;12.23;6.75;;;18.30;46.70;;;;;;2333424;54;21485;-71
2021/03/03 12:35:11;;;;;;;10.82;5.75;;;18.30;46.70;;;;;;2326098;54;20951;-71
2021/03/03 12:37:38;;;;;;;11.70;6.35;;;18.40;46.60;;;;;;2326847;54;20998;-70
2021/03/03 12:40:06;;;;;;;11.07;7.05;;;18.40;46.50;;;;;;2326074;54;21057;-72
2021/03/03 12:42:35;;;;;;;10.43;6.05;;;18.50;46.40;;;;;;2326003;54;20936;-71
2021/03/03 12:45:02;;;;;;;11.63;6.82;;;18.50;46.30;;;;;;2555067;53;21002;-69
2021/03/03 12:47:29;;;;;;;11.63;6.85;;;18.60;46.20;;;;;;2554934;53;20938;-69
2021/03/03 12:49:56;;;;;;;12.70;6.85;;;18.60;46.00;;;;;;2568232;53;21448;-71
2021/03/03 12:52:23;;;;;;;13.15;6.87;;;18.60;45.90;;;;;;2319492;54;20989;-70
2021/03/03 12:54:49;;;;;;;11.65;7.05;;;18.70;45.90;;;;;;2569147;53;21477;-73
2021/03/03 12:57:15;;;;;;;11.90;7.62;;;18.70;45.80;;;;;;2552341;53;21000;-70
2021/03/03 12:59:42;;;;;;;13.73;7.62;;;18.70;45.70;;;;;;2324111;54;21955;-70
2021/03/03 13:02:11;;;;;;;11.52;7.32;;;18.70;45.60;;;;;;2322632;53;20931;-69
2021/03/03 13:04:37;;;;;;;10.45;6.95;;;18.80;45.40;;;;;;2324839;54;21029;-69
2021/03/03 13:07:04;;;;;;;13.80;7.65;;;18.80;45.30;;;;;;2333889;54;21594;-69
2021/03/03 13:09:37;;;;;;;13.38;6.95;;;18.80;45.10;;;;;;2322711;54;20942;-69
2021/03/03 13:12:06;;;;;;;14.10;7.65;;;18.80;45.00;;;;;;2322820;54;21723;-70